Aviation Digital Data Service (ADDS)

Output produced by METARs form (0314 UTC 09 February 2016)
found at http://aviationweather.gov/adds/metars/
 
KPHL 090245Z 0903/1006 12008KT P6SM -SN OVC025 
     TEMPO 0903/0905 2SM -SN OVC010 
     FM090500 08006KT 4SM -SN OVC008 
     FM090700 05010KT 3/4SM -SN OVC006 
     FM091200 05012KT 4SM -SN OVC010 
     FM092100 01010KT 1/2SM SN OVC005 
     FM100300 34008KT 1SM -SN OVC008